Wood, South Dakota
Current Conditions -  °F | °C
As of 11:53 PM on Sunday 21 Dec 2014 (Local Time) from KICR Reporting Station
Overcast Overcast  
Wind Chill: 33°   Ceiling: 5000
Heat Index: 39°   Visibility: 10mi
Dew Point: 32°   Wind: 9mph
Humidity: 76%   Direction: 270°W
Pressure: 29.44"   Gusts: NA
Location:  43.5°N, 100.48°W
Report Text: KICR 220653Z AUTO 27008KT 10SM BKN050 OVC070 04/00 A2944 RMK AO2 SLP978 T00390000
Loading
Personal Weather Stations






























Interactive Weather Map New forecast layout! Learn more

10-Day Weather Forecast

Advertisements
Track Severe Weather on mobile